Aviation Digital Data Service (ADDS)

Output produced by METARs form (1826 UTC 16 August 2018)
found at http://www.aviationweather.gov/adds/metars/
 
KSAC 161738Z 1618/1718 22008KT P6SM SKC 
     FM170600 18005KT P6SM SKC 
     FM171500 21005KT P6SM SKC
       
KSAF 161727Z 1618/1718 28010KT P6SM SCT060 BKN120 
     FM162200 29011KT P6SM VCTS BKN090CB 
     FM170200 06009KT P6SM SCT120 
     FM171000 36006KT P6SM BKN120
       
KSAN 161740Z 1618/1724 28009KT P6SM SCT020 SCT100 
     FM170200 VRB04KT P6SM SCT017 
     FM170600 VRB04KT P6SM OVC015 
     FM171700 27008KT P6SM SCT017
       
KSAT 161737Z 1618/1724 17011G21KT P6SM SCT050 
     FM170500 16009KT P6SM SCT050 
     FM171100 16008KT P6SM BKN015 
     FM171400 18008KT P6SM SCT050
       
KSAV 161724Z 1618/1718 21006KT P6SM SCT060 
     FM162000 20007KT P6SM BKN060 
     FM170000 19006KT P6SM BKN200 
     FM171500 22004KT P6SM SCT045
       
KSBA 161727Z 1618/1718 21004KT P6SM SCT013 
     FM162100 24008KT P6SM SKC 
     FM170200 12006KT P6SM SKC 
     FM171200 11006KT P6SM BKN010 
     FM171600 16005KT P6SM SCT010
       
KSBD 161740Z 1618/1718 VRB04KT 5SM HZ FEW100 
     FM162100 25009KT P6SM BKN100 
     FM170400 VRB04KT P6SM SCT100 
     FM171400 VRB04KT 5SM HZ FEW100
       
KSBN 161737Z 1618/1718 21004KT P6SM VCSH OVC015 
     FM161900 21004KT P6SM VCSH OVC020 
     FM162000 VRB04KT P6SM OVC035 
     FM170700 VRB03KT 5SM BR BKN020 
     FM170900 VRB02KT 3SM BR BKN008
       
KSBP 161727Z 1618/1718 19003KT P6SM SCT010 
     FM162100 30012KT P6SM SKC 
     FM170400 30006KT P6SM SKC 
     FM171000 VRB03KT P6SM OVC005 
     FM171600 28005KT P6SM SCT006
       
KSBY 161732Z 1618/1718 25007KT P6SM FEW250 
     FM162300 21006KT P6SM SKC 
     FM170200 19004KT P6SM SKC 
     FM170900 22007KT P6SM FEW250
       
KSCK 161738Z 1618/1718 32007KT P6SM SKC
       
KSDF 161737Z 1618/1724 19012KT P6SM SCT030 BKN070 
     FM170200 19005KT P6SM BKN035 BKN250 
     FM171200 19007KT P6SM VCSH SCT020 BKN040
       
KSDL 161736Z 1618/1718 24008KT P6SM SCT060 SCT150 SCT220 
     FM170100 23014G24KT P6SM SCT100 SCT150 SCT250 
     FM170300 23008KT P6SM SCT100 SCT150 SCT250 
     FM170500 VRB04KT P6SM SCT060 BKN250
       
KSDY 161720Z 1618/1718 VRB04KT P6SM FEW200 
     FM162100 10008KT P6SM SKC 
     FM170200 VRB05KT P6SM SKC 
     FM171600 18008KT P6SM FEW150
       
KSEA 161724Z 1618/1724 22006KT 4SM BR OVC007 
     FM161900 22007KT P6SM BKN015 
     FM162100 21005KT P6SM SKC 
     FM170900 21004KT P6SM BKN018 
     FM171000 22004KT 5SM BR OVC015 
     FM171200 20004KT 3/4SM BR OVC002 
     FM171700 21005KT 4SM BR OVC007
       
KSEZ 161720Z 1618/1718 VRB05KT P6SM BKN110 
     TEMPO 1620/1624 VRB15G25KT 5SM TSRA BKN070CB 
     FM170100 VRB06KT P6SM SCT080 BKN120 AMD NOT SKED
       
KSFB 161720Z 1618/1718 14007KT P6SM FEW040 SCT250 
     FM161900 13007KT P6SM VCTS SCT040CB SCT120 
     FM162300 12007KT P6SM VCSH SCT035 BKN120 
     FM170200 13003KT P6SM SCT250 
     FM171400 14008KT P6SM FEW030
       
KSFF 161720Z 1618/1718 00000KT 3SM FU HZ SCT045 BKN120 
     FM162100 22005G10KT 4SM FU HZ FEW040 BKN120 
     FM170200 20005KT 4SM FU HZ FEW040 BKN120 
     FM170300 00000KT 5SM FU HZ BKN050 BKN120 
     PROB30 1711/1717 5SM -TSRA FU HZ BKN090CB BKN120
       
KSFO 161720Z 1618/1724 26011KT P6SM FEW010 SCT020 
     FM162100 28015G24KT P6SM FEW015 
     FM170400 29013KT P6SM SCT015 
     FM170600 28010KT P6SM BKN012 
     FM171700 31007KT P6SM FEW015 
     FM172100 28015G24KT P6SM SKC
       
KSGF 161720Z 1618/1718 27005KT P6SM SCT040 
     FM170000 25006KT P6SM VCTS BKN040CB 
     FM170400 VRB04KT 4SM -TSRA BR OVC035CB 
     TEMPO 1704/1708 2SM TSRA BR OVC025CB 
     FM170800 VRB04KT P6SM OVC250
       
KSGJ 161801Z 1618/1718 12012KT P6SM VCTS SCT030CB BKN070 
     TEMPO 1618/1619 BKN030CB 
     FM162200 16009KT P6SM SCT150 BKN250
       
KSGU 161726Z 1618/1718 27007KT P6SM SCT120 
     FM170200 24010KT P6SM VCSH SCT110 BKN150 
     FM170500 14007KT P6SM SCT150
       
KSHR 161720Z 1618/1718 VRB05KT P6SM SCT200 
     FM170800 VRB04KT 6SM FU SCT120 BKN150
       
KSHV 161745Z 1618/1718 24009KT P6SM SCT050 SCT250 
     FM170100 19005KT P6SM FEW250 
     FM170600 20005KT P6SM SCT250 
     FM171500 24008KT P6SM SCT040 BKN250
       
KSJC 161720Z 1618/1718 32005KT P6SM FEW006 SCT015 
     FM161900 31011KT P6SM SKC 
     FM170500 31006KT P6SM SKC 
     FM171000 31005KT P6SM SCT015 
     TEMPO 1712/1716 BKN015 
     FM171700 32009KT P6SM FEW015
       
KSJT 161720Z 1618/1718 17009KT P6SM SKC
       
TAF KSKA 161101Z 1611/1717 VRB06KT 8000 FU SCT015 BKN180 QNH2991INS 
     BECMG 1619/1620 23009KT 9000 FU SCT010 BKN130 QNH2996INS 
     BECMG 1703/1704 VRB06KT 8000 FU SCT010 SCT100 QNH2996INS 
     TEMPO 1710/1713 20012KT 9999 VCSH SCT040 TX33/1623Z TN16/1613Z
       
TAF KSKF 161800Z 1618/1724 18010G15KT 9999 SKC QNH3000INS 
     BECMG 1701/1702 15012KT 9999 FEW030 QNH2996INS 
     BECMG 1705/1706 18006KT 9999 SCT020 QNH3003INS 
     TEMPO 1710/1713 BKN015 
     BECMG 1716/1717 19010G15KT 9999 FEW150 QNH3000INS TX38/1621Z TN27/1712Z
       
KSLC 161726Z 1618/1724 17008KT P6SM SCT120 
     FM162000 33008KT P6SM SCT090 BKN120 
     FM170300 15006KT P6SM SCT120 
     FM171900 33007KT P6SM SCT090
       
KSLE 161732Z 1618/1718 30004KT P6SM SCT250 
     FM162100 34007KT P6SM SCT250 
     FM170900 VRB03KT P6SM SCT250 
     FM171400 36003KT P6SM OVC050
       
TAF KSLI 161300Z 1613/1719 18006KT 9999 OVC010 QNH2995INS 
     BECMG 1617/1618 20006KT 9999 FEW020 QNH2996INS 
     BECMG 1708/1709 20006KT 9999 BKN010 QNH2997INS 
     BECMG 1717/1718 23006KT 9999 FEW020 QNH3003INS TX27/1622Z TN20/1711Z
       
KSLK 161720Z 1618/1718 30008KT P6SM FEW200 
     FM170000 00000KT P6SM SKC 
     FM170600 00000KT P6SM SCT100 
     FM171000 00000KT P6SM VCSH BKN050 
     FM171200 00000KT P6SM -SHRA BKN045 
     FM171400 VRB04KT 4SM -SHRA BR OVC025
       
KSLN 161741Z 1618/1718 15008KT P6SM SCT035 
     FM162300 15007KT P6SM VCTS SCT060CB 
     FM170200 04007KT P6SM VCTS BKN060CB 
     FM170800 02006KT P6SM SCT100
       
KSME 161734Z 1618/1718 22009KT 5SM SHRA SCT050 BKN100 
     FM162000 22009KT 5SM SHRA VCTS SCT050CB BKN100 
     FM170800 21004KT 3SM SHRA BR SCT050 BKN090 
     FM171300 22006KT 5SM SHRA BKN030 OVC090 
     FM171600 22006KT 5SM SHRA VCTS SCT030CB BKN070
       
KSMF 161738Z 1618/1718 20008KT P6SM SKC 
     FM170600 16008KT P6SM SKC
       
KSMN 161720Z 1618/1718 VRB03KT P6SM SCT120 
     FM162200 33005KT P6SM VCSH SCT100 BKN150 
     FM170200 VRB03KT P6SM BKN150
       
KSMO 161727Z 1618/1718 25003KT P6SM SKC 
     FM162000 24008KT P6SM SKC 
     FM170400 VRB03KT P6SM SCT010 
     FM170900 VRB03KT P6SM OVC010 
     FM171600 23005KT P6SM SCT012
       
KSMX 161727Z 1618/1718 24007KT P6SM SCT010 
     FM162100 30012KT P6SM SKC 
     FM170400 30006KT P6SM SKC 
     FM170900 VRB03KT 6SM BR OVC005 
     FM171600 30005KT P6SM BKN008
       
KSNA 161740Z 1618/1718 21010KT P6SM FEW018 SCT100 
     FM170300 VRB04KT P6SM SCT016 
     FM170800 VRB03KT P6SM BKN015
       
KSNS 161720Z 1618/1718 29005KT P6SM SKC 
     FM162100 28012KT P6SM SKC 
     FM170300 31005KT P6SM SKC 
     FM170800 VRB04KT P6SM FEW010 
     TEMPO 1712/1716 BKN010
       
KSNY 161720Z 1618/1718 04008KT P6SM SKC 
     FM170100 15006KT P6SM SKC
       
KSPS 161743Z 1618/1718 20010KT P6SM BKN250 
     FM170000 16010KT P6SM VCTS SCT080CB BKN250 
     FM171200 20006KT P6SM BKN250
       
KSRQ 161730Z 1618/1718 24008KT P6SM VCTS BKN040CB BKN060 
     FM170100 VRB04KT P6SM FEW040 SCT120 BKN250 
     FM171400 15008KT P6SM SCT025 SCT250
       
TAF KSSC 161500Z 1615/1721 20009KT 9999 SCT010 BKN250 QNH3014INS 
     BECMG 1616/1617 20009KT 9999 SCT045 BKN250 QNH3009INS 
     BECMG 1700/1701 19006KT 9999 SCT050 BKN250 QNH3011INS 
     BECMG 1708/1709 21006KT 6000 BR BKN010 QNH3011INS 
     BECMG 1714/1715 23010G15KT 9999 NSW SCT060 QNH3005INS TX33/1621Z TN22/1712Z
       
KSSF 161737Z 1618/1718 14010KT P6SM SCT050 
     FM171000 15005KT P6SM BKN015 
     FM171500 16005KT P6SM SCT050
       
KSTC 161720Z 1618/1718 04004KT P6SM FEW040 SCT250 
     FM170000 00000KT P6SM SCT250 
     FM171500 34005KT P6SM SKC
       
KSTL 161737Z 1618/1724 25007KT P6SM FEW030 
     FM170300 28005KT P6SM VCTS BKN040CB 
     FM170600 23005KT 5SM -SHRA VCTS OVC040CB 
     FM171200 29005KT P6SM BKN250
       
KSTS 161720Z 1618/1718 VRB04KT P6SM FEW009 
     FM162000 19009KT P6SM SKC 
     FM170400 15004KT P6SM SKC 
     FM170800 VRB03KT P6SM OVC005 
     FM171200 VRB03KT 3SM BR OVC004
       
KSUA 161720Z 1618/1718 12012KT P6SM SCT025 
     FM170300 11005KT P6SM SCT250 
     FM171400 13010KT P6SM FEW030
       
KSUN 161726Z 1618/1724 30005KT P6SM BKN140 
     FM162000 16008KT P6SM SCT150 
     FM170400 31008KT P6SM FEW100 
     FM171800 15006KT P6SM VCTS BKN100CB
       
KSUS 161737Z 1618/1718 VRB04KT P6SM FEW070 
     FM170300 28005KT P6SM VCTS BKN040CB 
     FM170600 23005KT 5SM -SHRA VCTS OVC040CB 
     FM171200 29005KT P6SM BKN250
       
TAF KSUU 161102Z 1611/1717 24015G25KT 9999 SKC QNH2990INS 
     BECMG 1615/1616 24012G18KT 9999 SKC QNH2992INS 
     BECMG 1700/1701 23015G25KT 9999 SKC QNH2993INS 
     BECMG 1714/1715 24012G18KT 9999 SKC QNH3002INS TX32/1623Z TN13/1612Z
       
KSUX 161721Z 1618/1718 35005KT P6SM SCT015 BKN050 
     FM162000 35005KT P6SM VCTS SCT025CB BKN060 
     FM162200 VRB04KT P6SM SCT040 BKN060 
     FM170400 VRB03KT P6SM FEW250
       
KSWF 161722Z 1618/1724 29008KT P6SM FEW050 SCT200 
     FM170100 VRB03KT P6SM FEW050 SCT200 
     FM171400 23007KT P6SM SCT050 SCT120 
     FM171800 24013G20KT P6SM VCTS BKN050CB BKN250 AMD NOT SKED
       
KSYR 161720Z 1618/1718 29005KT P6SM SCT040 
     FM162200 VRB03KT P6SM SCT040 BKN100 
     TEMPO 1707/1711 5SM SHRA BR OVC035 
     FM171100 18007KT P6SM -SHRA OVC040
       
TAF KSZL 161100Z 1611/1717 VRB06KT 4800 BR SCT040 QNH2987INS 
     BECMG 1615/1616 24009KT 9999 NSW SCT035 QNH2992INS 
     BECMG 1701/1702 36006KT 8000 -SHRA VCTS BKN010CB QNH2992INS 
     TEMPO 1702/1703 36010G15KT 4800 -TSRA BKN005 BKN010CB 
     BECMG 1705/1706 VRB06KT 9000 BR BKN010 BKN050 QNH3003INS 
     BECMG 1713/1714 VRB06KT 9999 NSW FEW018 QNH3001INS TX31/1622Z TN21/1612Z